sensor_id;sensor_type;location;lat;lon;timestamp;P1;durP1;ratioP1;P2;durP2;ratioP2
76854;SDS011;66343;44.588;33.450;2023-07-20T00:00:12;9.57;;;5.18;;
76854;SDS011;66343;44.588;33.450;2023-07-20T00:02:42;9.20;;;5.00;;
76854;SDS011;66343;44.588;33.450;2023-07-20T00:05:13;7.93;;;4.70;;
76854;SDS011;66343;44.588;33.450;2023-07-20T00:07:42;9.40;;;4.82;;
76854;SDS011;66343;44.588;33.450;2023-07-20T00:10:11;8.45;;;4.78;;
76854;SDS011;66343;44.588;33.450;2023-07-20T00:12:41;8.57;;;5.07;;
76854;SDS011;66343;44.588;33.450;2023-07-20T00:15:18;9.05;;;5.15;;
76854;SDS011;66343;44.588;33.450;2023-07-20T00:17:47;7.85;;;4.55;;
76854;SDS011;66343;44.588;33.450;2023-07-20T00:20:16;11.90;;;5.32;;
76854;SDS011;66343;44.588;33.450;2023-07-20T00:22:48;9.25;;;5.05;;
76854;SDS011;66343;44.588;33.450;2023-07-20T00:25:21;9.23;;;5.03;;
76854;SDS011;66343;44.588;33.450;2023-07-20T00:27:53;10.48;;;5.22;;
76854;SDS011;66343;44.588;33.450;2023-07-20T00:30:27;8.85;;;5.28;;
76854;SDS011;66343;44.588;33.450;2023-07-20T00:32:59;9.38;;;5.57;;
76854;SDS011;66343;44.588;33.450;2023-07-20T00:35:28;11.63;;;5.65;;
76854;SDS011;66343;44.588;33.450;2023-07-20T00:37:57;11.00;;;5.53;;
76854;SDS011;66343;44.588;33.450;2023-07-20T00:40:35;9.18;;;5.38;;
76854;SDS011;66343;44.588;33.450;2023-07-20T00:43:08;9.27;;;5.10;;
76854;SDS011;66343;44.588;33.450;2023-07-20T00:45:41;7.90;;;4.35;;
76854;SDS011;66343;44.588;33.450;2023-07-20T00:48:10;10.43;;;5.13;;
76854;SDS011;66343;44.588;33.450;2023-07-20T00:50:41;9.75;;;5.18;;
76854;SDS011;66343;44.588;33.450;2023-07-20T00:53:16;7.80;;;4.50;;
76854;SDS011;66343;44.588;33.450;2023-07-20T00:55:48;7.40;;;4.30;;
76854;SDS011;66343;44.588;33.450;2023-07-20T00:58:23;7.82;;;4.57;;
76854;SDS011;66343;44.588;33.450;2023-07-20T01:00:56;7.85;;;4.30;;
76854;SDS011;66343;44.588;33.450;2023-07-20T01:03:27;9.25;;;4.82;;
76854;SDS011;66343;44.588;33.450;2023-07-20T01:06:02;7.68;;;4.32;;
76854;SDS011;66343;44.588;33.450;2023-07-20T01:08:39;8.02;;;3.95;;
76854;SDS011;66343;44.588;33.450;2023-07-20T01:14:19;7.50;;;4.30;;
76854;SDS011;66343;44.588;33.450;2023-07-20T01:16:48;8.38;;;4.43;;
76854;SDS011;66343;44.588;33.450;2023-07-20T01:19:23;8.90;;;4.85;;
76854;SDS011;66343;44.588;33.450;2023-07-20T01:33:35;8.05;;;4.55;;
76854;SDS011;66343;44.588;33.450;2023-07-20T01:36:14;7.45;;;4.20;;
76854;SDS011;66343;44.588;33.450;2023-07-20T01:38:46;7.35;;;3.80;;
76854;SDS011;66343;44.588;33.450;2023-07-20T01:41:18;8.52;;;4.40;;
76854;SDS011;66343;44.588;33.450;2023-07-20T01:43:50;8.30;;;4.13;;
76854;SDS011;66343;44.588;33.450;2023-07-20T01:46:22;8.95;;;4.30;;
76854;SDS011;66343;44.588;33.450;2023-07-20T01:48:55;8.60;;;4.60;;
76854;SDS011;66343;44.588;33.450;2023-07-20T01:51:24;8.30;;;4.45;;
76854;SDS011;66343;44.588;33.450;2023-07-20T01:53:57;7.20;;;3.88;;
76854;SDS011;66343;44.588;33.450;2023-07-20T01:56:28;9.60;;;4.07;;
76854;SDS011;66343;44.588;33.450;2023-07-20T01:58:57;8.55;;;4.22;;
76854;SDS011;66343;44.588;33.450;2023-07-20T02:01:28;7.72;;;4.05;;
76854;SDS011;66343;44.588;33.450;2023-07-20T02:04:00;7.50;;;4.13;;
76854;SDS011;66343;44.588;33.450;2023-07-20T02:06:30;7.63;;;4.05;;
76854;SDS011;66343;44.588;33.450;2023-07-20T02:09:00;7.65;;;4.40;;
76854;SDS011;66343;44.588;33.450;2023-07-20T02:11:31;8.00;;;4.30;;
76854;SDS011;66343;44.588;33.450;2023-07-20T02:14:00;8.40;;;4.50;;
76854;SDS011;66343;44.588;33.450;2023-07-20T02:16:30;7.93;;;4.30;;
76854;SDS011;66343;44.588;33.450;2023-07-20T02:19:05;8.23;;;3.97;;
76854;SDS011;66343;44.588;33.450;2023-07-20T02:21:36;9.15;;;4.63;;
76854;SDS011;66343;44.588;33.450;2023-07-20T02:26:36;7.95;;;4.00;;
76854;SDS011;66343;44.588;33.450;2023-07-20T02:29:10;8.20;;;4.03;;
76854;SDS011;66343;44.588;33.450;2023-07-20T02:31:42;7.97;;;3.83;;
76854;SDS011;66343;44.588;33.450;2023-07-20T02:34:16;10.38;;;4.85;;
76854;SDS011;66343;44.588;33.450;2023-07-20T02:36:46;7.75;;;4.38;;
76854;SDS011;66343;44.588;33.450;2023-07-20T02:39:16;8.77;;;4.68;;
76854;SDS011;66343;44.588;33.450;2023-07-20T02:41:48;8.25;;;4.15;;
76854;SDS011;66343;44.588;33.450;2023-07-20T02:44:20;8.85;;;4.18;;
76854;SDS011;66343;44.588;33.450;2023-07-20T02:46:49;9.00;;;4.03;;
76854;SDS011;66343;44.588;33.450;2023-07-20T02:49:18;9.25;;;4.22;;
76854;SDS011;66343;44.588;33.450;2023-07-20T02:51:48;9.60;;;4.68;;
76854;SDS011;66343;44.588;33.450;2023-07-20T02:54:20;10.05;;;4.72;;
76854;SDS011;66343;44.588;33.450;2023-07-20T02:56:50;7.90;;;3.88;;
76854;SDS011;66343;44.588;33.450;2023-07-20T02:59:21;7.85;;;3.97;;
76854;SDS011;66343;44.588;33.450;2023-07-20T03:01:53;8.90;;;4.35;;
76854;SDS011;66343;44.588;33.450;2023-07-20T03:04:25;7.93;;;4.20;;
76854;SDS011;66343;44.588;33.450;2023-07-20T03:06:55;7.88;;;4.10;;
76854;SDS011;66343;44.588;33.450;2023-07-20T03:09:26;8.52;;;4.15;;
76854;SDS011;66343;44.588;33.450;2023-07-20T03:11:58;7.80;;;4.50;;
76854;SDS011;66343;44.588;33.450;2023-07-20T03:14:32;9.00;;;3.92;;
76854;SDS011;66343;44.588;33.450;2023-07-20T03:17:05;9.40;;;4.20;;
76854;SDS011;66343;44.588;33.450;2023-07-20T03:19:40;9.65;;;4.30;;
76854;SDS011;66343;44.588;33.450;2023-07-20T03:22:10;9.77;;;4.50;;
76854;SDS011;66343;44.588;33.450;2023-07-20T03:24:39;9.40;;;4.32;;
76854;SDS011;66343;44.588;33.450;2023-07-20T03:27:09;8.77;;;4.03;;
76854;SDS011;66343;44.588;33.450;2023-07-20T03:29:44;8.93;;;4.28;;
76854;SDS011;66343;44.588;33.450;2023-07-20T03:32:13;8.18;;;4.00;;
76854;SDS011;66343;44.588;33.450;2023-07-20T03:34:41;9.52;;;4.35;;
76854;SDS011;66343;44.588;33.450;2023-07-20T03:37:17;9.32;;;4.20;;
76854;SDS011;66343;44.588;33.450;2023-07-20T03:39:47;8.52;;;4.20;;
76854;SDS011;66343;44.588;33.450;2023-07-20T03:42:16;9.60;;;4.20;;
76854;SDS011;66343;44.588;33.450;2023-07-20T03:44:48;7.20;;;3.75;;
76854;SDS011;66343;44.588;33.450;2023-07-20T03:47:21;8.43;;;4.70;;
76854;SDS011;66343;44.588;33.450;2023-07-20T03:49:53;9.55;;;4.30;;
76854;SDS011;66343;44.588;33.450;2023-07-20T03:52:22;7.53;;;3.70;;
76854;SDS011;66343;44.588;33.450;2023-07-20T03:54:59;8.10;;;4.05;;
76854;SDS011;66343;44.588;33.450;2023-07-20T03:57:29;9.38;;;4.03;;
76854;SDS011;66343;44.588;33.450;2023-07-20T04:00:01;9.93;;;4.20;;
76854;SDS011;66343;44.588;33.450;2023-07-20T04:02:41;8.23;;;4.20;;
76854;SDS011;66343;44.588;33.450;2023-07-20T04:05:11;8.73;;;3.92;;
76854;SDS011;66343;44.588;33.450;2023-07-20T04:07:45;8.82;;;3.97;;
76854;SDS011;66343;44.588;33.450;2023-07-20T04:10:16;9.43;;;4.10;;
76854;SDS011;66343;44.588;33.450;2023-07-20T04:12:47;9.02;;;3.92;;
76854;SDS011;66343;44.588;33.450;2023-07-20T04:15:17;8.95;;;4.10;;
76854;SDS011;66343;44.588;33.450;2023-07-20T04:17:46;7.45;;;3.47;;
76854;SDS011;66343;44.588;33.450;2023-07-20T04:22:50;9.70;;;3.78;;
76854;SDS011;66343;44.588;33.450;2023-07-20T04:25:21;8.50;;;4.30;;
76854;SDS011;66343;44.588;33.450;2023-07-20T04:27:50;9.23;;;4.13;;
76854;SDS011;66343;44.588;33.450;2023-07-20T04:30:24;8.32;;;3.80;;
76854;SDS011;66343;44.588;33.450;2023-07-20T04:32:55;10.15;;;4.25;;
76854;SDS011;66343;44.588;33.450;2023-07-20T04:38:30;9.98;;;4.25;;
76854;SDS011;66343;44.588;33.450;2023-07-20T04:41:26;8.27;;;4.03;;
76854;SDS011;66343;44.588;33.450;2023-07-20T04:43:59;9.15;;;4.05;;
76854;SDS011;66343;44.588;33.450;2023-07-20T04:46:33;8.20;;;3.83;;
76854;SDS011;66343;44.588;33.450;2023-07-20T04:49:03;12.40;;;4.40;;
76854;SDS011;66343;44.588;33.450;2023-07-20T04:51:40;10.02;;;4.60;;
76854;SDS011;66343;44.588;33.450;2023-07-20T04:54:15;10.68;;;4.70;;
76854;SDS011;66343;44.588;33.450;2023-07-20T04:56:48;9.15;;;4.53;;
76854;SDS011;66343;44.588;33.450;2023-07-20T04:59:20;10.18;;;4.20;;
76854;SDS011;66343;44.588;33.450;2023-07-20T05:01:49;9.13;;;4.20;;
76854;SDS011;66343;44.588;33.450;2023-07-20T05:04:21;10.27;;;4.75;;
76854;SDS011;66343;44.588;33.450;2023-07-20T05:06:53;10.45;;;5.45;;
76854;SDS011;66343;44.588;33.450;2023-07-20T05:09:25;10.23;;;4.50;;
76854;SDS011;66343;44.588;33.450;2023-07-20T05:11:56;11.70;;;6.90;;
76854;SDS011;66343;44.588;33.450;2023-07-20T05:14:26;10.35;;;5.07;;
76854;SDS011;66343;44.588;33.450;2023-07-20T05:16:55;8.70;;;4.45;;
76854;SDS011;66343;44.588;33.450;2023-07-20T05:19:27;12.70;;;4.82;;
76854;SDS011;66343;44.588;33.450;2023-07-20T05:21:59;10.43;;;4.80;;
76854;SDS011;66343;44.588;33.450;2023-07-20T05:24:28;12.65;;;4.47;;
76854;SDS011;66343;44.588;33.450;2023-07-20T05:26:58;9.30;;;4.55;;
76854;SDS011;66343;44.588;33.450;2023-07-20T05:29:27;9.70;;;4.80;;
76854;SDS011;66343;44.588;33.450;2023-07-20T05:31:56;7.68;;;4.28;;
76854;SDS011;66343;44.588;33.450;2023-07-20T05:34:25;11.52;;;4.55;;
76854;SDS011;66343;44.588;33.450;2023-07-20T05:36:55;8.20;;;3.90;;
76854;SDS011;66343;44.588;33.450;2023-07-20T05:39:24;9.23;;;4.60;;
76854;SDS011;66343;44.588;33.450;2023-07-20T05:41:56;9.68;;;4.78;;
76854;SDS011;66343;44.588;33.450;2023-07-20T05:44:25;11.20;;;4.75;;
76854;SDS011;66343;44.588;33.450;2023-07-20T05:46:57;9.40;;;4.95;;
76854;SDS011;66343;44.588;33.450;2023-07-20T05:49:28;11.70;;;5.60;;
76854;SDS011;66343;44.588;33.450;2023-07-20T05:52:01;11.02;;;4.85;;
76854;SDS011;66343;44.588;33.450;2023-07-20T05:54:30;11.80;;;4.60;;
76854;SDS011;66343;44.588;33.450;2023-07-20T05:57:01;8.05;;;4.60;;
76854;SDS011;66343;44.588;33.450;2023-07-20T05:59:33;9.55;;;5.03;;
76854;SDS011;66343;44.588;33.450;2023-07-20T06:02:06;9.13;;;4.63;;
76854;SDS011;66343;44.588;33.450;2023-07-20T06:04:36;14.20;;;5.18;;
76854;SDS011;66343;44.588;33.450;2023-07-20T06:07:10;9.05;;;5.22;;
76854;SDS011;66343;44.588;33.450;2023-07-20T06:09:43;8.50;;;4.80;;
76854;SDS011;66343;44.588;33.450;2023-07-20T06:12:11;8.55;;;4.72;;
76854;SDS011;66343;44.588;33.450;2023-07-20T06:14:45;9.50;;;4.90;;
76854;SDS011;66343;44.588;33.450;2023-07-20T06:17:16;11.38;;;5.40;;
76854;SDS011;66343;44.588;33.450;2023-07-20T06:19:48;11.73;;;5.10;;
76854;SDS011;66343;44.588;33.450;2023-07-20T06:22:20;9.90;;;5.65;;
76854;SDS011;66343;44.588;33.450;2023-07-20T06:24:51;9.35;;;5.15;;
76854;SDS011;66343;44.588;33.450;2023-07-20T06:27:26;8.50;;;4.97;;
76854;SDS011;66343;44.588;33.450;2023-07-20T06:29:58;10.80;;;4.85;;
76854;SDS011;66343;44.588;33.450;2023-07-20T06:32:30;12.10;;;5.45;;
76854;SDS011;66343;44.588;33.450;2023-07-20T06:35:00;10.65;;;4.90;;
76854;SDS011;66343;44.588;33.450;2023-07-20T06:37:31;10.43;;;5.25;;
76854;SDS011;66343;44.588;33.450;2023-07-20T06:40:02;11.45;;;5.38;;
76854;SDS011;66343;44.588;33.450;2023-07-20T06:42:40;10.85;;;4.97;;
76854;SDS011;66343;44.588;33.450;2023-07-20T06:45:19;10.57;;;5.20;;
76854;SDS011;66343;44.588;33.450;2023-07-20T06:47:49;10.77;;;5.03;;
76854;SDS011;66343;44.588;33.450;2023-07-20T06:50:18;13.65;;;5.90;;
76854;SDS011;66343;44.588;33.450;2023-07-20T06:52:47;9.38;;;5.30;;
76854;SDS011;66343;44.588;33.450;2023-07-20T06:55:16;10.93;;;5.30;;
76854;SDS011;66343;44.588;33.450;2023-07-20T07:00:19;12.05;;;4.82;;
76854;SDS011;66343;44.588;33.450;2023-07-20T07:02:51;9.85;;;4.90;;
76854;SDS011;66343;44.588;33.450;2023-07-20T07:05:20;11.27;;;5.45;;
76854;SDS011;66343;44.588;33.450;2023-07-20T07:08:01;9.63;;;5.32;;
76854;SDS011;66343;44.588;33.450;2023-07-20T07:10:31;12.43;;;5.43;;
76854;SDS011;66343;44.588;33.450;2023-07-20T07:13:01;11.35;;;5.43;;
76854;SDS011;66343;44.588;33.450;2023-07-20T07:15:35;11.05;;;5.07;;
76854;SDS011;66343;44.588;33.450;2023-07-20T07:18:06;10.15;;;5.78;;
76854;SDS011;66343;44.588;33.450;2023-07-20T07:20:35;15.02;;;5.97;;
76854;SDS011;66343;44.588;33.450;2023-07-20T07:23:05;10.52;;;5.30;;
76854;SDS011;66343;44.588;33.450;2023-07-20T07:25:34;11.98;;;5.10;;
76854;SDS011;66343;44.588;33.450;2023-07-20T07:28:05;9.40;;;5.00;;
76854;SDS011;66343;44.588;33.450;2023-07-20T07:30:34;13.70;;;5.07;;
76854;SDS011;66343;44.588;33.450;2023-07-20T07:33:08;10.88;;;5.32;;
76854;SDS011;66343;44.588;33.450;2023-07-20T07:35:41;12.45;;;5.25;;
76854;SDS011;66343;44.588;33.450;2023-07-20T07:38:11;12.50;;;5.35;;
76854;SDS011;66343;44.588;33.450;2023-07-20T07:41:02;13.07;;;5.55;;
76854;SDS011;66343;44.588;33.450;2023-07-20T07:43:32;10.85;;;5.30;;
76854;SDS011;66343;44.588;33.450;2023-07-20T07:46:03;12.35;;;5.53;;
76854;SDS011;66343;44.588;33.450;2023-07-20T07:48:32;9.68;;;5.10;;
76854;SDS011;66343;44.588;33.450;2023-07-20T07:51:03;8.75;;;4.97;;
76854;SDS011;66343;44.588;33.450;2023-07-20T07:53:32;12.13;;;6.03;;
76854;SDS011;66343;44.588;33.450;2023-07-20T07:56:06;12.45;;;5.68;;
76854;SDS011;66343;44.588;33.450;2023-07-20T07:58:47;12.80;;;5.32;;
76854;SDS011;66343;44.588;33.450;2023-07-20T08:01:22;13.57;;;5.68;;
76854;SDS011;66343;44.588;33.450;2023-07-20T08:03:55;9.27;;;5.32;;
76854;SDS011;66343;44.588;33.450;2023-07-20T08:06:26;9.00;;;4.80;;
76854;SDS011;66343;44.588;33.450;2023-07-20T08:08:58;12.88;;;5.43;;
76854;SDS011;66343;44.588;33.450;2023-07-20T08:11:30;12.90;;;5.70;;
76854;SDS011;66343;44.588;33.450;2023-07-20T08:14:01;13.35;;;5.50;;
76854;SDS011;66343;44.588;33.450;2023-07-20T08:16:32;16.02;;;5.50;;
76854;SDS011;66343;44.588;33.450;2023-07-20T08:19:03;14.15;;;5.63;;
76854;SDS011;66343;44.588;33.450;2023-07-20T08:21:38;16.23;;;5.18;;
76854;SDS011;66343;44.588;33.450;2023-07-20T08:24:15;11.00;;;4.90;;
76854;SDS011;66343;44.588;33.450;2023-07-20T08:26:48;11.07;;;5.50;;
76854;SDS011;66343;44.588;33.450;2023-07-20T08:31:54;11.93;;;5.50;;
76854;SDS011;66343;44.588;33.450;2023-07-20T08:34:28;11.63;;;5.05;;
76854;SDS011;66343;44.588;33.450;2023-07-20T08:37:02;10.98;;;5.00;;
76854;SDS011;66343;44.588;33.450;2023-07-20T08:39:35;11.63;;;5.30;;
76854;SDS011;66343;44.588;33.450;2023-07-20T08:42:09;11.95;;;5.55;;
76854;SDS011;66343;44.588;33.450;2023-07-20T08:44:39;9.23;;;5.18;;
76854;SDS011;66343;44.588;33.450;2023-07-20T08:47:09;11.85;;;5.80;;
76854;SDS011;66343;44.588;33.450;2023-07-20T08:49:42;12.57;;;5.95;;
76854;SDS011;66343;44.588;33.450;2023-07-20T08:52:16;12.50;;;5.22;;
76854;SDS011;66343;44.588;33.450;2023-07-20T08:54:45;12.23;;;5.70;;
76854;SDS011;66343;44.588;33.450;2023-07-20T08:57:18;12.50;;;5.75;;
76854;SDS011;66343;44.588;33.450;2023-07-20T08:59:55;14.10;;;5.90;;
76854;SDS011;66343;44.588;33.450;2023-07-20T09:02:24;13.38;;;5.90;;
76854;SDS011;66343;44.588;33.450;2023-07-20T09:04:56;14.10;;;6.00;;
76854;SDS011;66343;44.588;33.450;2023-07-20T09:07:33;13.05;;;5.78;;
76854;SDS011;66343;44.588;33.450;2023-07-20T09:10:10;16.40;;;5.90;;
76854;SDS011;66343;44.588;33.450;2023-07-20T09:12:41;12.90;;;6.20;;
76854;SDS011;66343;44.588;33.450;2023-07-20T09:15:18;10.95;;;5.88;;
76854;SDS011;66343;44.588;33.450;2023-07-20T09:17:51;12.20;;;5.60;;
76854;SDS011;66343;44.588;33.450;2023-07-20T09:20:25;13.90;;;5.40;;
76854;SDS011;66343;44.588;33.450;2023-07-20T09:22:55;11.40;;;6.18;;
76854;SDS011;66343;44.588;33.450;2023-07-20T09:25:24;12.45;;;6.13;;
76854;SDS011;66343;44.588;33.450;2023-07-20T09:28:01;14.48;;;6.85;;
76854;SDS011;66343;44.588;33.450;2023-07-20T09:30:35;16.30;;;6.55;;
76854;SDS011;66343;44.588;33.450;2023-07-20T09:33:17;12.90;;;6.22;;
76854;SDS011;66343;44.588;33.450;2023-07-20T09:35:52;14.82;;;7.35;;
76854;SDS011;66343;44.588;33.450;2023-07-20T09:38:27;17.52;;;7.20;;
76854;SDS011;66343;44.588;33.450;2023-07-20T09:41:18;11.40;;;7.05;;
76854;SDS011;66343;44.588;33.450;2023-07-20T09:43:50;15.05;;;6.97;;
76854;SDS011;66343;44.588;33.450;2023-07-20T09:46:23;18.90;;;7.07;;
76854;SDS011;66343;44.588;33.450;2023-07-20T09:48:56;14.15;;;6.57;;
76854;SDS011;66343;44.588;33.450;2023-07-20T09:51:33;14.02;;;7.13;;
76854;SDS011;66343;44.588;33.450;2023-07-20T09:54:07;15.35;;;6.72;;
76854;SDS011;66343;44.588;33.450;2023-07-20T09:56:40;13.00;;;6.43;;
76854;SDS011;66343;44.588;33.450;2023-07-20T09:59:14;13.52;;;6.43;;
76854;SDS011;66343;44.588;33.450;2023-07-20T10:01:44;13.93;;;6.35;;
76854;SDS011;66343;44.588;33.450;2023-07-20T10:04:14;16.00;;;6.85;;
76854;SDS011;66343;44.588;33.450;2023-07-20T10:06:49;13.13;;;7.07;;
76854;SDS011;66343;44.588;33.450;2023-07-20T10:09:22;11.50;;;6.80;;
76854;SDS011;66343;44.588;33.450;2023-07-20T10:11:54;12.02;;;6.40;;
76854;SDS011;66343;44.588;33.450;2023-07-20T10:14:49;13.77;;;6.88;;
76854;SDS011;66343;44.588;33.450;2023-07-20T10:17:29;12.48;;;6.65;;
76854;SDS011;66343;44.588;33.450;2023-07-20T10:20:00;16.48;;;6.40;;
76854;SDS011;66343;44.588;33.450;2023-07-20T10:22:36;15.30;;;6.57;;
76854;SDS011;66343;44.588;33.450;2023-07-20T10:25:09;11.05;;;6.55;;
76854;SDS011;66343;44.588;33.450;2023-07-20T10:27:39;13.85;;;7.20;;
76854;SDS011;66343;44.588;33.450;2023-07-20T10:30:12;14.90;;;6.70;;
76854;SDS011;66343;44.588;33.450;2023-07-20T10:32:42;14.02;;;6.35;;
76854;SDS011;66343;44.588;33.450;2023-07-20T10:35:16;10.13;;;5.35;;
76854;SDS011;66343;44.588;33.450;2023-07-20T10:40:24;12.73;;;6.07;;
76854;SDS011;66343;44.588;33.450;2023-07-20T10:43:08;12.65;;;6.15;;
76854;SDS011;66343;44.588;33.450;2023-07-20T10:45:53;11.35;;;5.95;;
76854;SDS011;66343;44.588;33.450;2023-07-20T10:48:23;10.70;;;5.80;;
76854;SDS011;66343;44.588;33.450;2023-07-20T10:51:12;13.40;;;5.72;;
76854;SDS011;66343;44.588;33.450;2023-07-20T10:53:51;9.20;;;5.53;;
76854;SDS011;66343;44.588;33.450;2023-07-20T10:56:26;10.20;;;5.72;;
76854;SDS011;66343;44.588;33.450;2023-07-20T10:58:59;12.68;;;5.85;;
76854;SDS011;66343;44.588;33.450;2023-07-20T11:01:47;11.43;;;5.72;;
76854;SDS011;66343;44.588;33.450;2023-07-20T11:04:26;12.10;;;5.55;;
76854;SDS011;66343;44.588;33.450;2023-07-20T11:07:10;13.25;;;6.00;;
76854;SDS011;66343;44.588;33.450;2023-07-20T11:09:45;10.48;;;5.60;;
76854;SDS011;66343;44.588;33.450;2023-07-20T11:12:23;12.48;;;5.75;;
76854;SDS011;66343;44.588;33.450;2023-07-20T11:14:56;9.50;;;5.13;;
76854;SDS011;66343;44.588;33.450;2023-07-20T11:17:31;10.27;;;5.68;;
76854;SDS011;66343;44.588;33.450;2023-07-20T11:20:03;13.38;;;6.30;;
76854;SDS011;66343;44.588;33.450;2023-07-20T11:22:41;8.70;;;5.10;;
76854;SDS011;66343;44.588;33.450;2023-07-20T11:25:18;16.67;;;6.88;;
76854;SDS011;66343;44.588;33.450;2023-07-20T11:27:51;10.73;;;5.60;;
76854;SDS011;66343;44.588;33.450;2023-07-20T11:30:20;13.10;;;5.85;;
76854;SDS011;66343;44.588;33.450;2023-07-20T11:32:52;11.70;;;5.28;;
76854;SDS011;66343;44.588;33.450;2023-07-20T11:35:24;9.93;;;5.47;;
76854;SDS011;66343;44.588;33.450;2023-07-20T11:38:02;10.30;;;5.00;;
76854;SDS011;66343;44.588;33.450;2023-07-20T11:40:35;10.73;;;5.28;;
76854;SDS011;66343;44.588;33.450;2023-07-20T11:43:14;9.65;;;5.03;;
76854;SDS011;66343;44.588;33.450;2023-07-20T11:45:49;11.02;;;5.50;;
76854;SDS011;66343;44.588;33.450;2023-07-20T11:48:21;10.23;;;5.30;;
76854;SDS011;66343;44.588;33.450;2023-07-20T11:50:53;9.82;;;5.40;;
76854;SDS011;66343;44.588;33.450;2023-07-20T11:53:27;10.10;;;5.10;;
76854;SDS011;66343;44.588;33.450;2023-07-20T11:55:57;9.30;;;5.40;;
76854;SDS011;66343;44.588;33.450;2023-07-20T11:58:29;9.80;;;4.85;;
76854;SDS011;66343;44.588;33.450;2023-07-20T12:01:00;10.65;;;5.43;;
76854;SDS011;66343;44.588;33.450;2023-07-20T12:03:29;11.75;;;4.68;;
76854;SDS011;66343;44.588;33.450;2023-07-20T12:06:06;11.48;;;4.60;;
76854;SDS011;66343;44.588;33.450;2023-07-20T12:08:40;9.68;;;4.97;;
76854;SDS011;66343;44.588;33.450;2023-07-20T12:11:15;10.55;;;5.40;;
76854;SDS011;66343;44.588;33.450;2023-07-20T12:14:03;8.35;;;4.70;;
76854;SDS011;66343;44.588;33.450;2023-07-20T12:16:51;9.10;;;5.00;;
76854;SDS011;66343;44.588;33.450;2023-07-20T12:19:25;9.50;;;4.82;;
76854;SDS011;66343;44.588;33.450;2023-07-20T12:22:02;10.32;;;4.68;;
76854;SDS011;66343;44.588;33.450;2023-07-20T12:24:32;8.60;;;5.55;;
76854;SDS011;66343;44.588;33.450;2023-07-20T12:27:05;11.23;;;5.32;;
76854;SDS011;66343;44.588;33.450;2023-07-20T12:29:35;8.52;;;4.80;;
76854;SDS011;66343;44.588;33.450;2023-07-20T12:32:05;9.20;;;5.38;;
76854;SDS011;66343;44.588;33.450;2023-07-20T12:34:37;11.20;;;5.35;;
76854;SDS011;66343;44.588;33.450;2023-07-20T12:37:09;7.55;;;4.60;;
76854;SDS011;66343;44.588;33.450;2023-07-20T12:39:41;9.82;;;4.93;;
76854;SDS011;66343;44.588;33.450;2023-07-20T12:42:16;11.18;;;4.70;;
76854;SDS011;66343;44.588;33.450;2023-07-20T12:44:49;13.05;;;5.30;;
76854;SDS011;66343;44.588;33.450;2023-07-20T12:47:23;11.38;;;5.05;;
76854;SDS011;66343;44.588;33.450;2023-07-20T12:49:58;7.75;;;4.90;;
76854;SDS011;66343;44.588;33.450;2023-07-20T12:52:28;10.63;;;5.30;;
76854;SDS011;66343;44.588;33.450;2023-07-20T12:55:02;8.70;;;4.60;;
76854;SDS011;66343;44.588;33.450;2023-07-20T12:57:37;14.43;;;4.80;;
76854;SDS011;66343;44.588;33.450;2023-07-20T13:00:08;10.13;;;4.20;;
76854;SDS011;66343;44.588;33.450;2023-07-20T13:02:39;8.32;;;5.07;;
76854;SDS011;66343;44.588;33.450;2023-07-20T13:05:10;8.68;;;4.50;;
76854;SDS011;66343;44.588;33.450;2023-07-20T13:07:43;7.05;;;4.10;;
76854;SDS011;66343;44.588;33.450;2023-07-20T13:10:20;9.07;;;4.30;;
76854;SDS011;66343;44.588;33.450;2023-07-20T13:12:51;11.82;;;4.65;;
76854;SDS011;66343;44.588;33.450;2023-07-20T13:15:21;10.07;;;4.82;;
76854;SDS011;66343;44.588;33.450;2023-07-20T13:17:55;14.02;;;5.97;;
76854;SDS011;66343;44.588;33.450;2023-07-20T13:20:30;9.48;;;4.55;;
76854;SDS011;66343;44.588;33.450;2023-07-20T13:23:00;9.45;;;4.88;;
76854;SDS011;66343;44.588;33.450;2023-07-20T13:25:29;7.72;;;3.88;;
76854;SDS011;66343;44.588;33.450;2023-07-20T13:28:01;8.88;;;4.93;;
76854;SDS011;66343;44.588;33.450;2023-07-20T13:30:33;9.25;;;3.97;;
76854;SDS011;66343;44.588;33.450;2023-07-20T13:33:04;13.45;;;4.57;;
76854;SDS011;66343;44.588;33.450;2023-07-20T13:35:37;10.10;;;4.40;;
76854;SDS011;66343;44.588;33.450;2023-07-20T13:38:11;11.43;;;4.40;;
76854;SDS011;66343;44.588;33.450;2023-07-20T13:40:44;11.65;;;4.43;;
76854;SDS011;66343;44.588;33.450;2023-07-20T13:43:16;7.65;;;4.20;;
76854;SDS011;66343;44.588;33.450;2023-07-20T13:45:50;9.70;;;4.43;;
76854;SDS011;66343;44.588;33.450;2023-07-20T13:48:20;9.43;;;4.60;;
76854;SDS011;66343;44.588;33.450;2023-07-20T13:50:55;10.55;;;4.70;;
76854;SDS011;66343;44.588;33.450;2023-07-20T13:53:27;8.13;;;3.92;;
76854;SDS011;66343;44.588;33.450;2023-07-20T13:56:00;10.95;;;4.72;;
76854;SDS011;66343;44.588;33.450;2023-07-20T13:58:32;12.10;;;4.50;;
76854;SDS011;66343;44.588;33.450;2023-07-20T14:01:01;9.00;;;4.57;;
76854;SDS011;66343;44.588;33.450;2023-07-20T14:03:30;9.27;;;4.40;;
76854;SDS011;66343;44.588;33.450;2023-07-20T14:06:05;10.85;;;4.10;;
76854;SDS011;66343;44.588;33.450;2023-07-20T14:08:41;9.13;;;4.45;;
76854;SDS011;66343;44.588;33.450;2023-07-20T14:11:11;8.48;;;3.65;;
76854;SDS011;66343;44.588;33.450;2023-07-20T14:13:45;10.27;;;4.10;;
76854;SDS011;66343;44.588;33.450;2023-07-20T14:16:15;8.68;;;3.63;;
76854;SDS011;66343;44.588;33.450;2023-07-20T14:18:47;8.43;;;4.30;;
76854;SDS011;66343;44.588;33.450;2023-07-20T14:21:19;8.43;;;3.97;;
76854;SDS011;66343;44.588;33.450;2023-07-20T14:23:50;7.95;;;3.92;;
76854;SDS011;66343;44.588;33.450;2023-07-20T14:26:30;8.25;;;3.67;;
76854;SDS011;66343;44.588;33.450;2023-07-20T14:29:01;9.05;;;4.32;;
76854;SDS011;66343;44.588;33.450;2023-07-20T14:31:37;9.60;;;4.30;;
76854;SDS011;66343;44.588;33.450;2023-07-20T14:34:10;9.18;;;3.83;;
76854;SDS011;66343;44.588;33.450;2023-07-20T14:36:40;9.80;;;4.13;;
76854;SDS011;66343;44.588;33.450;2023-07-20T14:39:10;8.27;;;3.67;;
76854;SDS011;66343;44.588;33.450;2023-07-20T14:41:42;9.00;;;3.75;;
76854;SDS011;66343;44.588;33.450;2023-07-20T14:44:13;7.75;;;3.63;;
76854;SDS011;66343;44.588;33.450;2023-07-20T14:46:43;10.77;;;3.50;;
76854;SDS011;66343;44.588;33.450;2023-07-20T14:49:39;7.88;;;3.70;;
76854;SDS011;66343;44.588;33.450;2023-07-20T14:52:11;10.80;;;3.45;;
76854;SDS011;66343;44.588;33.450;2023-07-20T14:54:44;7.82;;;3.47;;
76854;SDS011;66343;44.588;33.450;2023-07-20T14:57:14;7.60;;;3.60;;
76854;SDS011;66343;44.588;33.450;2023-07-20T14:59:47;7.63;;;3.75;;
76854;SDS011;66343;44.588;33.450;2023-07-20T15:02:18;8.23;;;3.30;;
76854;SDS011;66343;44.588;33.450;2023-07-20T15:04:49;8.90;;;4.13;;
76854;SDS011;66343;44.588;33.450;2023-07-20T15:07:42;8.10;;;3.83;;
76854;SDS011;66343;44.588;33.450;2023-07-20T15:10:12;8.63;;;4.07;;
76854;SDS011;66343;44.588;33.450;2023-07-20T15:12:43;7.78;;;3.53;;
76854;SDS011;66343;44.588;33.450;2023-07-20T15:15:15;8.77;;;3.42;;
76854;SDS011;66343;44.588;33.450;2023-07-20T15:17:47;8.18;;;3.78;;
76854;SDS011;66343;44.588;33.450;2023-07-20T15:22:49;9.45;;;3.60;;
76854;SDS011;66343;44.588;33.450;2023-07-20T15:25:19;13.20;;;3.90;;
76854;SDS011;66343;44.588;33.450;2023-07-20T15:27:55;8.98;;;3.70;;
76854;SDS011;66343;44.588;33.450;2023-07-20T15:30:28;8.90;;;3.83;;
76854;SDS011;66343;44.588;33.450;2023-07-20T15:33:00;9.30;;;3.55;;